首页
METAR-TAF:

METAR-TAF

机场 :

Twin County Airport

盖拉克斯 / Hillsville, 弗吉尼亚州, 美国

纬度: 36-46N, 经度: 080-49W, 海拔: 834米

当前天气观测

该预报发布于29分钟前的23:55 UTC
静风
温度 18°C
湿度 94%
气压 1022 hPa
能見度: 16.1公里
阴天层高于500英尺

METAR: KHLX 232355Z AUTO 00000KT 10SM OVC005 18/17 A3019 RMK AO2 T01760170 10217 20176

时间: 20:24 (00:24 UTC)


TAF: 丢失

超过4000个机场的气象观测和天气预报(METAR&TAF报告)。

可查询的气象台以黄色和红色小点在地图上表示。

将鼠标移到小点上方,可查看气象台名称。

然后点击查看天气观测和预报。

如需切换地图:点击带黑十字的绿色按钮放大地图;点击带横线的绿色按钮缩小地图;或者点击绿色箭头查看邻近地区的地图。


METAR-TAF: